Time;durP1;ratioP1;P1;durP2;ratioP2;P2;SDS_P1;SDS_P2;PMS_P1;PMS_P2;Temp;Humidity;BMP_temperature;BMP_pressure;BME280_temperature;BME280_humidity;BME280_pressure;Samples;Min_cycle;Max_cycle;Signal;HPM_P1;HPM_P2
2021/07/13 00:00:41;;;;;;;17.50;15.80;;;17.70;99.90;;;;;;5006179;28;20068;-85
2021/07/13 00:03:08;;;;;;;17.63;15.55;;;17.80;99.90;;;;;;4989918;28;20028;-85
2021/07/13 00:05:36;;;;;;;19.95;17.88;;;17.80;99.90;;;;;;4996472;28;20117;-86
2021/07/13 00:08:03;;;;;;;19.00;16.92;;;17.80;99.90;;;;;;4989577;28;20050;-85
2021/07/13 00:10:31;;;;;;;18.02;16.00;;;17.80;99.90;;;;;;4995659;28;20065;-86
2021/07/13 00:12:58;;;;;;;18.33;16.48;;;17.80;99.90;;;;;;5019524;28;20038;-84
2021/07/13 00:15:30;;;;;;;18.77;16.85;;;17.80;99.90;;;;;;4998061;28;20446;-86
2021/07/13 00:17:58;;;;;;;18.85;16.85;;;17.80;99.90;;;;;;4988988;28;20034;-86
2021/07/13 00:20:25;;;;;;;18.98;17.02;;;17.80;99.90;;;;;;4989951;28;20541;-86
2021/07/13 00:22:50;;;;;;;17.10;15.32;;;17.80;99.90;;;;;;4990790;28;20076;-86
2021/07/13 00:25:17;;;;;;;20.23;18.10;;;17.80;99.90;;;;;;5023356;28;20100;-85
2021/07/13 00:27:47;;;;;;;20.08;18.02;;;17.70;99.90;;;;;;5019557;28;20041;-86
2021/07/13 00:30:16;;;;;;;18.48;16.58;;;17.70;99.90;;;;;;5003563;28;20026;-86
2021/07/13 00:32:42;;;;;;;19.70;17.77;;;17.70;99.90;;;;;;4997471;28;20525;-86
2021/07/13 00:35:09;;;;;;;19.67;17.58;;;17.70;99.90;;;;;;5013428;28;20030;-86
2021/07/13 00:37:34;;;;;;;17.42;15.52;;;17.70;99.90;;;;;;5022287;28;20041;-85
2021/07/13 00:40:00;;;;;;;20.40;18.20;;;17.60;99.90;;;;;;5013850;28;20039;-85
2021/07/13 00:42:26;;;;;;;20.25;17.95;;;17.70;99.90;;;;;;5013852;28;20044;-85
2021/07/13 00:44:52;;;;;;;18.95;17.02;;;17.70;99.90;;;;;;5014034;28;20035;-86
2021/07/13 00:47:20;;;;;;;20.73;18.50;;;17.70;99.90;;;;;;5015306;28;20034;-85
2021/07/13 00:49:46;;;;;;;19.88;17.75;;;17.80;99.90;;;;;;4989329;28;20137;-86
2021/07/13 00:52:12;;;;;;;22.08;19.88;;;17.80;99.90;;;;;;5005315;28;20038;-85
2021/07/13 00:54:40;;;;;;;19.70;17.70;;;17.70;99.90;;;;;;4989395;28;20117;-85
2021/07/13 00:57:07;;;;;;;19.90;17.83;;;17.70;99.90;;;;;;5021887;28;20038;-85
2021/07/13 00:59:39;;;;;;;20.33;17.38;;;17.70;99.90;;;;;;4989358;28;20438;-86
2021/07/13 01:02:06;;;;;;;19.20;17.20;;;17.80;99.90;;;;;;5015334;28;20038;-86
2021/07/13 01:04:32;;;;;;;18.27;16.35;;;17.80;99.90;;;;;;5006551;28;20022;-86
2021/07/13 01:07:08;;;;;;;17.83;16.02;;;17.90;99.90;;;;;;5004761;28;20036;-86
2021/07/13 01:09:50;;;;;;;17.80;15.90;;;17.90;99.90;;;;;;5005304;28;20045;-85
2021/07/13 01:12:43;;;;;;;17.83;16.02;;;17.90;99.90;;;;;;5007271;28;20141;-86
2021/07/13 01:15:10;;;;;;;17.90;16.05;;;17.90;99.90;;;;;;5003898;28;20026;-86
2021/07/13 01:18:01;;;;;;;17.50;15.80;;;17.90;99.90;;;;;;5005129;28;20068;-85
2021/07/13 01:21:04;;;;;;;18.40;16.42;;;17.90;99.90;;;;;;4988775;28;20041;-86
2021/07/13 01:23:51;;;;;;;17.25;15.45;;;17.90;99.90;;;;;;5002997;28;20038;-85
2021/07/13 01:26:30;;;;;;;16.83;15.13;;;17.90;99.90;;;;;;4988387;28;20054;-85
2021/07/13 01:29:03;;;;;;;17.15;15.35;;;17.90;99.90;;;;;;5005032;28;20035;-86
2021/07/13 01:31:29;;;;;;;17.15;15.35;;;17.90;99.90;;;;;;4988686;28;20033;-84
2021/07/13 01:34:02;;;;;;;17.42;15.65;;;18.00;99.90;;;;;;5021027;28;20098;-86
2021/07/13 01:36:31;;;;;;;18.05;16.25;;;17.90;99.90;;;;;;5003463;28;20034;-85
2021/07/13 01:39:00;;;;;;;17.98;16.08;;;17.90;99.90;;;;;;4988677;28;20103;-85
2021/07/13 01:41:28;;;;;;;17.88;16.02;;;17.90;99.90;;;;;;4988838;28;20442;-86
2021/07/13 01:43:55;;;;;;;17.88;15.90;;;18.00;99.90;;;;;;5004973;28;20098;-85
2021/07/13 01:46:22;;;;;;;16.88;15.23;;;18.00;99.90;;;;;;5005091;28;20043;-86
2021/07/13 01:48:57;;;;;;;15.95;14.35;;;18.00;99.90;;;;;;5001880;28;20125;-84
2021/07/13 01:51:24;;;;;;;15.00;13.60;;;18.00;99.90;;;;;;5003231;28;20111;-85
2021/07/13 01:53:52;;;;;;;17.95;16.15;;;18.00;99.90;;;;;;4987374;28;20040;-86
2021/07/13 01:56:19;;;;;;;16.00;14.30;;;18.00;99.90;;;;;;4988980;28;20039;-86
2021/07/13 01:58:48;;;;;;;16.83;15.18;;;18.00;99.90;;;;;;5004971;28;20066;-86
2021/07/13 02:01:18;;;;;;;15.43;13.82;;;18.00;99.90;;;;;;5016146;28;20096;-86
2021/07/13 02:03:45;;;;;;;14.85;13.35;;;18.00;99.90;;;;;;5013463;28;20034;-86
2021/07/13 02:06:14;;;;;;;16.08;14.48;;;18.00;99.90;;;;;;5024810;28;20031;-86
2021/07/13 02:08:41;;;;;;;16.60;15.00;;;17.90;99.90;;;;;;5008255;28;20027;-86
2021/07/13 02:11:09;;;;;;;15.95;14.25;;;17.90;99.90;;;;;;4992011;28;20033;-86
2021/07/13 02:13:35;;;;;;;16.70;15.07;;;17.80;99.90;;;;;;5016170;28;20054;-85
2021/07/13 02:16:02;;;;;;;15.43;13.85;;;17.80;99.90;;;;;;5009535;28;20038;-84
2021/07/13 02:18:28;;;;;;;16.63;15.05;;;17.70;99.90;;;;;;5007955;28;20022;-85
2021/07/13 02:20:54;;;;;;;14.60;13.18;;;17.80;99.90;;;;;;4999922;28;20034;-85
2021/07/13 02:23:20;;;;;;;14.80;13.30;;;17.70;99.90;;;;;;4997067;28;20029;-86
2021/07/13 02:25:48;;;;;;;15.25;13.73;;;17.70;99.90;;;;;;5015549;28;20044;-86
2021/07/13 02:28:21;;;;;;;15.23;13.82;;;17.60;99.90;;;;;;4991809;28;20027;-85
2021/07/13 02:30:51;;;;;;;16.02;14.40;;;17.60;99.90;;;;;;4994987;28;20069;-85
2021/07/13 02:33:20;;;;;;;17.75;16.05;;;17.50;99.90;;;;;;5002866;28;20040;-85
2021/07/13 02:35:50;;;;;;;15.70;14.13;;;17.50;99.90;;;;;;5018613;28;20034;-85
2021/07/13 02:38:19;;;;;;;17.38;15.57;;;17.40;99.90;;;;;;5001361;28;20042;-86
2021/07/13 02:40:47;;;;;;;16.55;14.88;;;17.30;99.90;;;;;;5013796;28;20056;-86
2021/07/13 02:43:13;;;;;;;14.95;13.48;;;17.20;99.90;;;;;;5007766;28;20050;-86
2021/07/13 02:45:41;;;;;;;15.82;14.25;;;17.20;99.90;;;;;;4990998;28;20061;-85
2021/07/13 02:48:08;;;;;;;16.58;14.88;;;17.20;99.90;;;;;;5007647;28;20042;-86
2021/07/13 02:50:34;;;;;;;16.55;15.02;;;17.20;99.90;;;;;;4991786;28;20038;-86
2021/07/13 02:53:03;;;;;;;15.00;13.50;;;17.30;99.90;;;;;;5010856;28;20025;-85
2021/07/13 02:55:31;;;;;;;17.20;15.50;;;17.30;99.90;;;;;;5015765;28;20030;-85
2021/07/13 02:57:59;;;;;;;17.35;15.63;;;17.30;99.90;;;;;;5010482;28;20034;-85
2021/07/13 03:00:25;;;;;;;16.70;14.98;;;17.30;99.90;;;;;;4994060;28;20061;-85
2021/07/13 03:02:51;;;;;;;17.52;15.45;;;17.20;99.90;;;;;;5010506;28;20117;-84
2021/07/13 03:05:19;;;;;;;17.63;15.77;;;17.20;99.90;;;;;;4994108;28;20033;-86
2021/07/13 03:07:48;;;;;;;16.67;14.98;;;17.30;99.90;;;;;;4991656;28;20034;-85
2021/07/13 03:10:18;;;;;;;18.45;16.20;;;17.20;99.90;;;;;;4994067;28;20037;-86
2021/07/13 03:12:44;;;;;;;15.57;13.98;;;17.20;99.90;;;;;;5010471;28;20025;-86
2021/07/13 03:15:10;;;;;;;16.38;14.68;;;17.10;99.90;;;;;;5012104;28;20038;-85
2021/07/13 03:17:40;;;;;;;16.48;14.80;;;17.20;99.90;;;;;;5016964;28;20049;-85
2021/07/13 03:20:07;;;;;;;15.13;13.68;;;17.20;99.90;;;;;;4993238;28;20110;-85
2021/07/13 03:22:39;;;;;;;16.77;14.98;;;17.20;99.90;;;;;;4993233;28;20034;-86
2021/07/13 03:25:07;;;;;;;17.10;14.50;;;17.20;99.90;;;;;;5024481;28;20022;-86
2021/07/13 03:27:35;;;;;;;15.95;14.35;;;17.30;99.90;;;;;;4993538;28;20034;-86
2021/07/13 03:30:04;;;;;;;15.13;13.55;;;17.30;99.90;;;;;;4993876;28;20034;-85
2021/07/13 03:32:33;;;;;;;16.30;14.60;;;17.30;99.90;;;;;;4993522;28;20573;-86
2021/07/13 03:35:00;;;;;;;17.40;13.60;;;17.40;99.90;;;;;;4990955;28;20062;-86
2021/07/13 03:37:25;;;;;;;15.98;14.38;;;17.30;99.90;;;;;;5009602;28;20026;-85
2021/07/13 03:39:52;;;;;;;15.60;14.02;;;17.30;99.90;;;;;;4993702;28;20038;-85
2021/07/13 03:42:19;;;;;;;14.20;12.70;;;17.40;99.90;;;;;;5026038;28;20042;-85
2021/07/13 03:44:45;;;;;;;17.05;15.35;;;17.40;99.90;;;;;;5026457;28;20033;-86
2021/07/13 03:47:16;;;;;;;17.08;15.38;;;17.40;99.90;;;;;;4993590;28;20030;-86
2021/07/13 03:49:47;;;;;;;16.98;15.25;;;17.40;99.90;;;;;;4993087;28;20069;-86
2021/07/13 03:52:13;;;;;;;18.33;16.42;;;17.40;99.90;;;;;;4993372;28;20045;-86
2021/07/13 03:54:40;;;;;;;18.23;16.00;;;17.50;99.90;;;;;;5025818;28;20057;-85
2021/07/13 03:57:06;;;;;;;19.58;17.13;;;17.50;99.90;;;;;;5025485;28;20045;-86
2021/07/13 03:59:32;;;;;;;18.52;16.55;;;17.60;99.90;;;;;;5023036;28;20030;-86
2021/07/13 04:01:57;;;;;;;18.70;16.70;;;17.60;99.90;;;;;;4993007;28;20033;-87
2021/07/13 04:04:24;;;;;;;18.02;16.15;;;17.60;99.90;;;;;;4992999;28;20080;-86
2021/07/13 04:06:49;;;;;;;16.95;15.23;;;17.60;99.90;;;;;;5008690;28;20034;-86
2021/07/13 04:09:15;;;;;;;18.48;14.75;;;17.70;99.90;;;;;;5024486;28;20029;-86
2021/07/13 04:11:41;;;;;;;17.13;15.38;;;17.70;99.90;;;;;;5008421;28;20026;-86
2021/07/13 04:14:07;;;;;;;17.08;15.00;;;17.70;99.90;;;;;;4993160;28;20083;-86
2021/07/13 04:16:34;;;;;;;17.25;15.35;;;17.70;99.90;;;;;;5006945;28;20168;-86
2021/07/13 04:19:01;;;;;;;17.33;14.35;;;17.80;99.90;;;;;;5024636;28;20030;-86
2021/07/13 04:21:26;;;;;;;18.42;16.52;;;17.80;99.90;;;;;;4992094;28;20030;-86
2021/07/13 04:23:52;;;;;;;17.23;14.85;;;17.90;99.90;;;;;;4998599;28;20054;-85
2021/07/13 04:26:18;;;;;;;19.48;16.75;;;17.90;99.90;;;;;;4997967;28;20057;-86
2021/07/13 04:28:44;;;;;;;18.17;16.00;;;17.90;99.90;;;;;;4991744;28;20018;-86
2021/07/13 04:31:10;;;;;;;18.15;16.20;;;17.90;99.90;;;;;;5008234;28;20061;-87
2021/07/13 04:33:38;;;;;;;17.38;15.52;;;17.90;99.90;;;;;;4991964;28;20033;-86
2021/07/13 04:36:09;;;;;;;14.18;12.70;;;17.90;99.90;;;;;;5005443;28;20048;-87
2021/07/13 04:38:41;;;;;;;19.42;16.92;;;17.90;99.90;;;;;;4991868;28;20030;-86
2021/07/13 04:41:08;;;;;;;22.60;18.35;;;18.00;99.90;;;;;;4991752;28;20038;-86
2021/07/13 04:43:33;;;;;;;18.83;16.85;;;18.00;99.90;;;;;;4990781;28;20112;-86
2021/07/13 04:45:59;;;;;;;18.58;16.67;;;18.00;99.90;;;;;;5007625;28;20042;-86
2021/07/13 04:48:25;;;;;;;18.73;16.73;;;18.10;99.90;;;;;;5007837;28;20044;-85
2021/07/13 04:50:54;;;;;;;17.92;15.98;;;18.10;99.90;;;;;;4991610;28;20063;-86
2021/07/13 04:53:19;;;;;;;18.27;16.33;;;18.20;99.90;;;;;;4991085;28;20033;-86
2021/07/13 04:55:45;;;;;;;21.17;18.70;;;18.20;99.90;;;;;;4991286;28;20037;-86
2021/07/13 04:58:13;;;;;;;23.33;20.35;;;18.20;99.90;;;;;;5007813;28;20056;-86
2021/07/13 05:00:38;;;;;;;22.77;18.77;;;18.30;99.90;;;;;;4991565;28;20179;-85
2021/07/13 05:03:04;;;;;;;22.70;19.27;;;18.30;99.90;;;;;;4996735;28;20030;-86
2021/07/13 05:05:30;;;;;;;21.90;19.13;;;18.30;99.90;;;;;;4991702;28;20060;-86
2021/07/13 05:07:55;;;;;;;22.65;18.95;;;18.30;99.90;;;;;;4993868;28;20030;-85
2021/07/13 05:10:21;;;;;;;20.58;18.05;;;18.30;99.90;;;;;;4991655;28;20390;-87
2021/07/13 05:12:47;;;;;;;21.48;19.25;;;18.30;99.90;;;;;;4991359;28;20030;-86
2021/07/13 05:15:15;;;;;;;24.98;21.48;;;18.40;99.90;;;;;;5021935;28;20034;-85
2021/07/13 05:17:43;;;;;;;23.45;20.13;;;18.40;99.90;;;;;;5007557;28;20386;-86
2021/07/13 05:20:14;;;;;;;23.30;20.02;;;18.40;99.90;;;;;;5007543;28;20038;-85
2021/07/13 05:22:40;;;;;;;23.30;19.05;;;18.40;99.90;;;;;;5021895;28;20026;-85
2021/07/13 05:25:08;;;;;;;25.67;20.08;;;18.50;99.90;;;;;;4985083;28;20061;-85
2021/07/13 05:27:39;;;;;;;23.50;20.15;;;18.50;99.90;;;;;;4991366;28;20050;-85
2021/07/13 05:30:07;;;;;;;26.30;21.13;;;18.50;99.90;;;;;;4991363;28;20030;-85
2021/07/13 05:32:33;;;;;;;24.60;20.58;;;18.60;99.90;;;;;;4999908;28;20026;-85
2021/07/13 05:34:58;;;;;;;22.35;19.95;;;18.60;99.90;;;;;;4997363;28;20658;-86
2021/07/13 05:37:25;;;;;;;21.95;18.95;;;18.60;99.90;;;;;;4991728;28;20058;-86
2021/07/13 05:39:51;;;;;;;21.77;18.10;;;18.60;99.90;;;;;;5001262;28;20061;-86
2021/07/13 05:42:16;;;;;;;27.42;21.60;;;18.60;99.90;;;;;;4994010;28;20041;-85
2021/07/13 05:44:42;;;;;;;27.30;23.35;;;18.60;99.90;;;;;;4993835;28;20085;-85
2021/07/13 05:47:08;;;;;;;28.63;23.08;;;18.70;99.90;;;;;;4993357;28;20559;-85
2021/07/13 05:49:33;;;;;;;28.90;23.10;;;18.70;99.90;;;;;;4993993;28;20040;-85
2021/07/13 05:51:59;;;;;;;28.77;22.95;;;18.70;99.90;;;;;;5012575;28;20029;-87
2021/07/13 05:54:25;;;;;;;26.40;21.17;;;18.70;99.90;;;;;;4994497;28;20426;-86
2021/07/13 05:56:51;;;;;;;30.23;24.73;;;18.70;99.90;;;;;;5007972;28;20093;-86
2021/07/13 05:59:16;;;;;;;30.10;23.73;;;18.70;99.90;;;;;;4993633;28;20022;-86
2021/07/13 06:01:42;;;;;;;39.30;31.98;;;18.70;99.90;;;;;;5026406;28;20062;-85
2021/07/13 06:04:08;;;;;;;37.10;29.02;;;18.60;99.90;;;;;;5010009;28;20022;-86
2021/07/13 06:06:33;;;;;;;39.53;30.80;;;18.60;99.90;;;;;;5010342;28;20025;-86
2021/07/13 06:08:59;;;;;;;29.00;23.00;;;18.60;99.90;;;;;;5025800;28;20022;-86
2021/07/13 06:11:24;;;;;;;34.80;27.55;;;18.60;99.90;;;;;;4993619;28;20371;-86
2021/07/13 06:13:50;;;;;;;32.60;25.38;;;18.60;99.90;;;;;;4993430;28;20034;-86
2021/07/13 06:16:16;;;;;;;30.90;23.85;;;18.70;99.90;;;;;;4995826;28;20049;-86
2021/07/13 06:18:41;;;;;;;32.47;25.05;;;18.70;99.90;;;;;;5010065;28;20090;-86
2021/07/13 06:21:09;;;;;;;40.05;28.40;;;18.80;99.90;;;;;;4993615;28;20037;-86
2021/07/13 06:23:35;;;;;;;31.05;24.67;;;18.70;99.90;;;;;;4993543;28;20086;-85
2021/07/13 06:26:01;;;;;;;34.58;27.33;;;18.80;99.90;;;;;;4993431;28;20037;-86
2021/07/13 06:28:27;;;;;;;31.67;25.45;;;18.80;99.90;;;;;;4993104;28;20029;-86
2021/07/13 06:30:52;;;;;;;32.58;23.88;;;18.70;99.90;;;;;;5012514;28;20034;-85
2021/07/13 06:33:18;;;;;;;34.80;26.33;;;18.70;99.90;;;;;;5017970;28;20033;-85
2021/07/13 06:35:46;;;;;;;36.60;27.45;;;18.70;99.90;;;;;;4944706;28;20437;-85
2021/07/13 06:38:12;;;;;;;34.00;24.58;;;18.70;99.90;;;;;;5009041;28;20029;-85
2021/07/13 06:40:37;;;;;;;31.17;23.80;;;18.70;99.90;;;;;;4998372;28;20033;-85
2021/07/13 06:43:03;;;;;;;41.03;31.70;;;18.70;99.90;;;;;;5010038;28;20117;-85
2021/07/13 06:45:29;;;;;;;44.13;31.88;;;18.80;99.90;;;;;;5001612;28;20033;-85
2021/07/13 06:47:54;;;;;;;38.47;26.98;;;18.80;99.90;;;;;;5025786;28;20048;-84
2021/07/13 06:50:24;;;;;;;33.75;25.60;;;18.80;99.90;;;;;;5009341;28;20048;-85
2021/07/13 06:52:51;;;;;;;35.47;25.90;;;18.90;99.90;;;;;;5008629;28;20506;-84
2021/07/13 06:55:17;;;;;;;40.13;29.88;;;18.80;99.90;;;;;;5009515;28;20090;-84
2021/07/13 06:57:43;;;;;;;36.42;27.50;;;18.80;99.90;;;;;;4992992;28;20030;-84
2021/07/13 07:00:10;;;;;;;38.25;27.58;;;18.90;99.90;;;;;;5026860;28;20041;-84
2021/07/13 07:02:36;;;;;;;31.23;24.08;;;18.90;99.90;;;;;;5026404;28;20475;-84
2021/07/13 07:05:02;;;;;;;36.30;25.15;;;18.90;99.90;;;;;;4992685;28;20038;-83
2021/07/13 07:07:28;;;;;;;35.70;26.85;;;18.90;99.90;;;;;;5025355;28;20026;-83
2021/07/13 07:09:53;;;;;;;34.35;25.90;;;18.90;99.90;;;;;;4992769;28;20022;-82
2021/07/13 07:12:19;;;;;;;31.05;23.40;;;19.00;99.90;;;;;;5024949;28;20030;-83
2021/07/13 07:14:45;;;;;;;38.90;28.27;;;19.00;99.90;;;;;;5008387;28;20045;-82
2021/07/13 07:17:10;;;;;;;35.50;25.67;;;19.00;99.90;;;;;;4991734;28;20088;-83
2021/07/13 07:19:36;;;;;;;40.17;28.73;;;19.10;99.90;;;;;;4992174;28;20066;-82
2021/07/13 07:22:01;;;;;;;44.92;32.47;;;19.00;99.90;;;;;;4992195;28;20505;-83
2021/07/13 07:24:27;;;;;;;45.80;34.08;;;19.10;99.90;;;;;;5002656;28;20033;-82
2021/07/13 07:26:52;;;;;;;36.03;26.02;;;19.10;99.90;;;;;;4991969;28;20033;-83
2021/07/13 07:29:18;;;;;;;36.40;26.50;;;19.10;99.90;;;;;;5024179;28;20033;-83
2021/07/13 07:31:44;;;;;;;32.33;24.33;;;19.10;99.90;;;;;;5008053;28;20048;-82
2021/07/13 07:34:09;;;;;;;35.20;25.45;;;19.10;99.90;;;;;;4991812;28;20017;-83
2021/07/13 07:36:35;;;;;;;33.53;23.88;;;19.10;99.90;;;;;;4991829;28;20541;-82
2021/07/13 07:39:01;;;;;;;34.58;26.20;;;19.10;99.90;;;;;;5025719;28;20040;-82
2021/07/13 07:41:26;;;;;;;35.33;25.45;;;19.10;99.90;;;;;;4991131;28;20042;-82
2021/07/13 07:43:52;;;;;;;33.40;23.45;;;19.10;99.90;;;;;;5007540;28;20041;-82
2021/07/13 07:46:18;;;;;;;30.45;21.00;;;19.10;99.90;;;;;;5003626;28;20076;-83
2021/07/13 07:48:43;;;;;;;34.50;25.80;;;19.10;99.90;;;;;;5007321;28;20451;-84
2021/07/13 07:51:09;;;;;;;35.05;25.95;;;19.10;99.90;;;;;;5024036;28;20030;-84
2021/07/13 07:53:35;;;;;;;40.03;30.10;;;19.10;99.90;;;;;;5002234;28;20029;-84
2021/07/13 07:56:00;;;;;;;39.15;28.15;;;19.10;99.90;;;;;;5007901;28;20042;-84
2021/07/13 07:58:26;;;;;;;38.67;28.23;;;19.10;99.90;;;;;;5024205;28;20026;-85
2021/07/13 08:00:53;;;;;;;38.33;28.48;;;19.20;99.90;;;;;;4991647;28;20410;-86
2021/07/13 08:03:19;;;;;;;36.05;26.65;;;19.10;99.90;;;;;;5007788;28;20085;-86
2021/07/13 08:05:44;;;;;;;42.22;30.45;;;19.20;99.90;;;;;;4992375;28;20041;-87
2021/07/13 08:08:10;;;;;;;37.60;25.95;;;19.20;99.90;;;;;;5008367;28;20044;-85
2021/07/13 08:10:36;;;;;;;36.13;25.92;;;19.30;99.90;;;;;;4991981;28;20037;-86
2021/07/13 08:13:04;;;;;;;39.95;29.55;;;19.30;99.90;;;;;;4991534;28;20041;-86
2021/07/13 08:15:30;;;;;;;40.63;28.80;;;19.30;99.90;;;;;;4991942;28;20030;-87
2021/07/13 08:17:56;;;;;;;40.88;29.25;;;19.40;99.90;;;;;;5008055;28;20164;-85
2021/07/13 08:20:21;;;;;;;38.88;28.60;;;19.50;99.90;;;;;;5024144;28;20443;-86
2021/07/13 08:22:48;;;;;;;33.40;26.23;;;19.40;99.90;;;;;;4991895;28;20034;-86
2021/07/13 08:25:15;;;;;;;36.95;27.15;;;19.50;99.90;;;;;;5025344;28;20025;-86
2021/07/13 08:27:41;;;;;;;32.67;25.02;;;19.70;99.90;;;;;;5024500;28;20025;-86
2021/07/13 08:30:07;;;;;;;37.88;29.48;;;19.60;99.90;;;;;;5024578;28;20133;-87
2021/07/13 08:32:33;;;;;;;34.70;27.38;;;19.60;99.90;;;;;;5007938;28;20371;-86
2021/07/13 08:34:59;;;;;;;31.92;25.17;;;19.60;99.90;;;;;;5024549;28;20040;-87
2021/07/13 08:37:27;;;;;;;29.85;23.50;;;19.70;99.90;;;;;;5024528;28;20029;-87
2021/07/13 08:39:52;;;;;;;32.83;26.73;;;19.80;99.90;;;;;;5024171;28;20375;-87
2021/07/13 08:42:18;;;;;;;22.00;17.30;;;19.80;99.90;;;;;;5024283;28;20041;-87
2021/07/13 08:44:44;;;;;;;25.98;20.73;;;20.00;99.90;;;;;;5024236;28;20030;-86
2021/07/13 08:50:09;;;;;;;27.23;20.02;;;20.10;99.90;;;;;;5024063;28;20254;-86
2021/07/13 08:52:38;;;;;;;22.88;19.52;;;20.00;99.90;;;;;;5024981;28;20034;-85
2021/07/13 08:55:08;;;;;;;26.98;23.17;;;20.10;99.90;;;;;;5024680;28;20125;-87
2021/07/13 08:57:37;;;;;;;25.92;21.55;;;20.00;99.90;;;;;;5007737;28;20061;-86
2021/07/13 09:00:05;;;;;;;25.48;21.00;;;20.00;99.90;;;;;;5024468;28;20026;-86
2021/07/13 09:02:31;;;;;;;27.98;23.75;;;19.90;99.90;;;;;;5024626;28;20038;-86
2021/07/13 09:04:56;;;;;;;22.65;19.17;;;19.80;99.90;;;;;;5024706;28;20110;-87
2021/07/13 09:07:22;;;;;;;23.42;19.52;;;19.90;99.90;;;;;;5024410;28;20030;-86
2021/07/13 09:09:51;;;;;;;25.75;19.85;;;19.90;99.90;;;;;;5024606;28;20030;-85
2021/07/13 09:12:19;;;;;;;24.75;20.40;;;20.00;99.90;;;;;;5024564;28;20040;-85
2021/07/13 09:15:00;;;;;;;24.95;20.08;;;20.10;99.90;;;;;;5028553;28;20091;-86
2021/07/13 09:17:30;;;;;;;20.63;17.02;;;20.20;99.90;;;;;;5045038;28;20070;-86
2021/07/13 09:20:00;;;;;;;;;;;20.20;99.90;;;;;;5045074;28;20029;-86
2021/07/13 09:22:27;;;;;;;22.08;17.88;;;20.20;99.90;;;;;;5044727;28;19917;-85
2021/07/13 09:24:54;;;;;;;18.88;16.27;;;20.30;99.90;;;;;;5044799;28;20053;-86
2021/07/13 09:27:19;;;;;;;20.63;17.65;;;20.40;99.90;;;;;;5028363;28;20124;-85
2021/07/13 09:29:48;;;;;;;21.65;18.77;;;20.40;99.90;;;;;;5028302;28;20030;-85
2021/07/13 09:32:32;;;;;;;21.67;17.50;;;20.30;99.90;;;;;;5027877;28;20037;-85
2021/07/13 09:35:04;;;;;;;23.85;20.17;;;20.40;99.90;;;;;;5027962;28;20034;-85
2021/07/13 09:37:35;;;;;;;24.20;19.50;;;20.20;99.90;;;;;;5044147;28;20029;-85
2021/07/13 09:40:17;;;;;;;23.45;19.27;;;20.10;99.90;;;;;;5027593;28;20029;-85
2021/07/13 09:42:46;;;;;;;26.33;21.35;;;20.10;99.90;;;;;;5028261;28;20117;-86
2021/07/13 09:45:19;;;;;;;23.77;18.92;;;20.00;99.90;;;;;;5027594;28;20049;-86
2021/07/13 09:47:46;;;;;;;22.60;16.88;;;20.10;99.90;;;;;;5030084;28;20058;-84
2021/07/13 09:50:28;;;;;;;18.13;16.15;;;20.10;99.90;;;;;;5007786;28;20041;-86
2021/07/13 09:53:01;;;;;;;23.50;20.45;;;20.10;99.90;;;;;;4991779;28;20030;-87
2021/07/13 09:55:28;;;;;;;21.58;17.75;;;20.10;99.90;;;;;;5008062;28;20077;-86
2021/07/13 09:58:06;;;;;;;22.70;18.73;;;20.30;99.90;;;;;;5024472;28;20041;-87
2021/07/13 10:00:32;;;;;;;24.48;19.38;;;20.30;99.90;;;;;;5007538;28;20066;-87
2021/07/13 10:02:59;;;;;;;21.95;18.55;;;20.30;99.90;;;;;;5007594;28;20045;-86
2021/07/13 10:05:27;;;;;;;25.17;20.08;;;20.30;99.90;;;;;;5007531;28;20031;-86
2021/07/13 10:07:54;;;;;;;25.67;21.33;;;20.40;99.90;;;;;;5007430;28;20030;-86
2021/07/13 10:10:21;;;;;;;25.00;21.20;;;20.40;99.90;;;;;;5007413;28;20030;-86
2021/07/13 10:12:48;;;;;;;27.42;21.30;;;20.50;99.90;;;;;;5007431;28;20098;-85
2021/07/13 10:15:13;;;;;;;21.75;17.95;;;20.40;99.90;;;;;;5017696;28;20058;-85
2021/07/13 10:17:40;;;;;;;28.42;23.95;;;20.40;99.90;;;;;;5026819;28;20037;-87
2021/07/13 10:20:11;;;;;;;30.27;23.83;;;20.50;99.90;;;;;;5026774;28;20125;-87
2021/07/13 10:22:41;;;;;;;27.92;22.75;;;20.50;99.90;;;;;;5026928;28;20041;-86
2021/07/13 10:25:08;;;;;;;19.30;15.07;;;20.50;99.90;;;;;;5042492;28;20057;-87
2021/07/13 10:27:34;;;;;;;26.73;21.45;;;20.60;99.90;;;;;;5026744;28;20033;-87
2021/07/13 10:30:07;;;;;;;25.38;20.10;;;20.50;99.90;;;;;;5043228;28;20029;-86
2021/07/13 10:32:38;;;;;;;28.65;23.02;;;20.50;99.90;;;;;;5026643;28;20441;-86
2021/07/13 10:35:23;;;;;;;21.92;18.83;;;20.50;99.90;;;;;;5026535;28;20029;-86
2021/07/13 10:37:52;;;;;;;25.70;20.73;;;20.50;99.90;;;;;;5026612;28;20030;-87
2021/07/13 10:40:27;;;;;;;27.83;22.00;;;20.50;99.90;;;;;;5042798;28;20045;-86
2021/07/13 10:42:58;;;;;;;26.15;19.88;;;20.60;99.90;;;;;;5043314;28;20080;-86
2021/07/13 10:45:32;;;;;;;29.42;22.05;;;20.60;99.90;;;;;;5026389;28;20033;-86
2021/07/13 10:48:05;;;;;;;21.30;17.27;;;20.70;99.90;;;;;;5026944;28;20443;-86
2021/07/13 10:50:32;;;;;;;25.70;19.88;;;20.70;99.90;;;;;;5006507;28;20049;-86
2021/07/13 10:53:24;;;;;;;32.65;24.90;;;20.60;99.90;;;;;;5023351;28;20509;-86
2021/07/13 10:55:51;;;;;;;31.10;24.65;;;20.60;99.90;;;;;;5022922;28;20030;-86
2021/07/13 10:58:22;;;;;;;33.72;27.38;;;20.60;99.90;;;;;;5022816;28;20034;-85
2021/07/13 11:00:48;;;;;;;25.27;20.45;;;20.70;99.90;;;;;;5006235;28;20065;-84
2021/07/13 11:03:30;;;;;;;27.27;22.40;;;20.80;99.90;;;;;;5006465;28;20042;-85
2021/07/13 11:05:56;;;;;;;34.60;26.15;;;20.90;99.90;;;;;;5007396;28;20041;-84
2021/07/13 11:08:41;;;;;;;29.25;23.42;;;20.90;99.90;;;;;;5022622;28;20038;-85
2021/07/13 11:11:07;;;;;;;27.48;22.58;;;21.00;99.90;;;;;;5006219;28;20037;-85
2021/07/13 11:13:33;;;;;;;27.00;21.02;;;21.00;99.90;;;;;;5022810;28;20045;-85
2021/07/13 11:15:59;;;;;;;22.10;17.88;;;21.20;99.90;;;;;;5035557;28;20026;-85
2021/07/13 11:18:26;;;;;;;27.27;22.02;;;21.20;99.90;;;;;;5027232;28;20025;-85
2021/07/13 11:20:52;;;;;;;32.78;26.13;;;21.20;99.90;;;;;;5025147;28;20045;-85
2021/07/13 11:23:27;;;;;;;25.40;21.30;;;21.20;99.90;;;;;;5041990;28;20084;-85
2021/07/13 11:26:08;;;;;;;32.80;25.95;;;21.30;99.90;;;;;;5042148;28;20052;-85
2021/07/13 11:28:33;;;;;;;33.35;24.58;;;21.30;99.90;;;;;;5042170;28;20439;-85
2021/07/13 11:30:59;;;;;;;31.63;26.73;;;21.30;99.90;;;;;;5025282;28;20049;-85
2021/07/13 11:33:27;;;;;;;29.75;24.65;;;21.30;99.90;;;;;;5025410;28;20100;-85
2021/07/13 11:35:57;;;;;;;36.03;29.90;;;21.40;99.90;;;;;;5025258;28;20088;-85
2021/07/13 11:38:36;;;;;;;32.03;25.48;;;21.30;99.90;;;;;;5025188;28;20037;-85
2021/07/13 11:41:10;;;;;;;30.35;23.88;;;21.30;99.90;;;;;;5025129;28;20085;-85
2021/07/13 11:43:36;;;;;;;34.33;27.42;;;21.30;99.90;;;;;;5041703;28;20354;-85
2021/07/13 11:46:17;;;;;;;33.90;27.02;;;21.30;99.90;;;;;;5041686;28;20037;-85
2021/07/13 11:49:06;;;;;;;29.10;24.00;;;21.30;99.90;;;;;;5002097;28;20087;-85
2021/07/13 11:51:51;;;;;;;30.27;25.17;;;21.30;99.90;;;;;;5001854;28;20055;-85
2021/07/13 11:54:28;;;;;;;27.73;22.33;;;21.20;99.90;;;;;;5002329;28;20035;-84
2021/07/13 11:56:56;;;;;;;30.38;24.55;;;21.10;99.90;;;;;;4969606;28;20101;-85
2021/07/13 11:59:26;;;;;;;31.27;25.10;;;21.00;99.90;;;;;;4969768;28;20019;-86
2021/07/13 12:01:54;;;;;;;;;;;21.00;99.90;;;;;;4986136;28;20077;-86
2021/07/13 12:04:25;;;;;;;27.50;21.05;;;21.00;99.90;;;;;;5001962;28;19996;-86
2021/07/13 12:06:54;;;;;;;26.65;22.05;;;21.00;99.90;;;;;;4985609;28;20034;-85
2021/07/13 12:09:24;;;;;;;32.95;24.77;;;21.10;99.90;;;;;;5001878;28;20041;-85
2021/07/13 12:11:51;;;;;;;26.92;21.33;;;21.00;99.90;;;;;;5001718;28;20030;-84
2021/07/13 12:14:19;;;;;;;35.30;27.60;;;21.10;99.90;;;;;;4985897;28;20049;-85
2021/07/13 12:16:45;;;;;;;30.23;23.23;;;21.10;99.90;;;;;;5004422;28;20034;-85
2021/07/13 12:19:17;;;;;;;27.30;23.33;;;21.20;99.90;;;;;;5004981;28;20041;-85
2021/07/13 12:21:55;;;;;;;26.23;21.17;;;21.20;99.90;;;;;;5021296;28;20554;-86
2021/07/13 12:24:29;;;;;;;26.25;22.63;;;21.20;99.90;;;;;;5021286;28;20045;-86
2021/07/13 12:26:57;;;;;;;29.30;24.45;;;21.20;99.90;;;;;;5004811;28;20065;-86
2021/07/13 12:29:33;;;;;;;26.77;22.98;;;21.20;99.90;;;;;;5004762;28;20053;-86
2021/07/13 12:32:01;;;;;;;26.52;20.88;;;21.20;99.90;;;;;;5004764;28;20105;-86
2021/07/13 12:34:32;;;;;;;31.58;26.40;;;21.20;99.90;;;;;;5004712;28;20038;-86
2021/07/13 12:37:24;;;;;;;27.50;23.15;;;21.20;99.90;;;;;;5004898;28;20041;-85